Time;durP1;ratioP1;P1;durP2;ratioP2;P2;SDS_P1;SDS_P2;PMS_P1;PMS_P2;Temp;Humidity;BMP_temperature;BMP_pressure;BME280_temperature;BME280_humidity;BME280_pressure;Samples;Min_cycle;Max_cycle;Signal;HPM_P1;HPM_P2
2022/04/14 00:00:38;;;;;;;;;;;7.60;72.40;;;6.48;nan;96732.59;4156079;34;19903;-86
2022/04/14 00:03:07;;;;;;;;;;;7.60;72.20;;;6.47;nan;96735.56;4133427;34;19979;-85
2022/04/14 00:05:37;;;;;;;;;;;7.60;72.00;;;6.48;nan;96737.22;4155992;34;20158;-86
2022/04/14 00:08:06;;;;;;;;;;;7.60;72.00;;;6.47;nan;96738.28;4178497;34;19903;-86
2022/04/14 00:10:35;;;;;;;;;;;7.60;72.00;;;6.48;nan;96737.22;4155934;34;19911;-87
2022/04/14 00:13:04;;;;;;;;;;;7.60;72.00;;;6.47;nan;96741.81;4264598;28;20215;-83
2022/04/14 00:15:33;;;;;;;;;;;7.60;72.00;;;6.48;nan;96737.22;4265365;33;20235;-84
2022/04/14 00:18:02;;;;;;;;;;;7.60;71.90;;;6.47;nan;96738.28;4292808;33;20085;-83
2022/04/14 00:20:31;;;;;;;;;;;7.60;71.70;;;6.47;nan;96732.84;4268126;33;19908;-83
2022/04/14 00:23:01;;;;;;;;;;;7.60;71.70;;;6.47;nan;96735.56;4291997;33;19948;-83
2022/04/14 00:25:29;;;;;;;;;;;7.60;71.60;;;6.46;nan;96737.41;4292318;33;19902;-83
2022/04/14 00:27:58;;;;;;;;;;;7.60;71.60;;;6.46;nan;96731.97;4291836;33;20152;-83
2022/04/14 00:30:27;;;;;;;;;;;7.60;71.50;;;6.45;nan;96738.50;4316468;32;20208;-84
2022/04/14 00:32:56;;;;;;;;;;;7.60;71.50;;;6.46;nan;96731.97;4292078;33;20023;-83
2022/04/14 00:35:24;;;;;;;;;;;7.60;71.50;;;6.45;nan;96735.78;4263248;33;20140;-83
2022/04/14 00:37:53;;;;;;;;;;;7.60;71.40;;;6.45;nan;96741.22;4238999;33;20348;-83
2022/04/14 00:40:23;;;;;;;;;;;7.50;71.40;;;6.44;nan;96740.38;4239068;33;19902;-84
2022/04/14 00:42:52;;;;;;;;;;;7.60;71.40;;;6.44;nan;96742.28;4262672;33;19968;-83
2022/04/14 00:45:20;;;;;;;;;;;7.60;71.40;;;6.44;nan;96743.09;4239258;33;19909;-83
2022/04/14 00:47:49;;;;;;;;;;;7.60;71.40;;;6.43;nan;96741.44;4262719;33;20141;-83
2022/04/14 00:50:18;;;;;;;;;;;7.60;71.60;;;6.42;nan;96745.22;4262944;33;19909;-83
2022/04/14 00:52:47;;;;;;;;;;;7.60;71.60;;;6.42;nan;96739.78;4238925;33;19909;-83
2022/04/14 00:55:16;;;;;;;;;;;7.50;71.50;;;6.42;nan;96739.78;4286340;33;19902;-82
2022/04/14 00:57:47;;;;;;;;;;;7.50;71.50;;;6.42;nan;96738.97;4238253;33;19995;-83
2022/04/14 01:00:16;;;;;;;;;;;7.50;71.50;;;6.42;nan;96739.78;4261434;33;19950;-83
2022/04/14 01:02:45;;;;;;;;;;;7.50;71.60;;;6.41;nan;96738.13;4237468;33;19902;-83
2022/04/14 01:05:13;;;;;;;;;;;7.50;71.70;;;6.41;nan;96740.03;4237688;33;19977;-82
2022/04/14 01:07:44;;;;;;;;;;;7.50;71.90;;;6.41;nan;96735.41;4237259;33;19901;-83
2022/04/14 01:10:13;;;;;;;;;;;7.50;71.80;;;6.40;nan;96730.22;4262089;33;20013;-83
2022/04/14 01:12:42;;;;;;;;;;;7.50;71.70;;;6.38;nan;96725.00;4238803;33;20158;-83
2022/04/14 01:15:14;;;;;;;;;;;7.50;71.80;;;6.39;nan;96732.06;4262528;33;19909;-83
2022/04/14 01:17:43;;;;;;;;;;;7.50;71.80;;;6.37;nan;96725.22;4238354;33;20402;-83
2022/04/14 01:20:13;;;;;;;;;;;7.50;72.00;;;6.38;nan;96738.59;4262612;33;20132;-83
2022/04/14 01:22:46;;;;;;;;;;;7.50;72.00;;;6.36;nan;96735.28;4262374;33;20409;-83
2022/04/14 01:25:17;;;;;;;;;;;7.50;71.80;;;6.36;nan;96738.00;4262434;33;19913;-83
2022/04/14 01:27:45;;;;;;;;;;;7.50;71.80;;;6.37;nan;96741.53;4238318;33;20414;-83
2022/04/14 01:30:14;;;;;;;;;;;7.50;71.90;;;6.36;nan;96739.88;4262545;33;19902;-83
2022/04/14 01:32:43;;;;;;;;;;;7.50;72.00;;;6.35;nan;96743.66;4286561;33;19989;-83
2022/04/14 01:35:11;;;;;;;;;;;7.50;71.90;;;6.35;nan;96749.94;4238607;33;20136;-83
2022/04/14 01:37:40;;;;;;;;;;;7.50;72.30;;;6.35;nan;96744.50;4262188;33;20094;-84
2022/04/14 01:40:12;;;;;;;;;;;7.40;72.00;;;6.35;nan;96739.06;4263292;33;20030;-83
2022/04/14 01:42:42;;;;;;;;;;;7.50;72.00;;;6.35;nan;96739.06;4238680;33;20370;-83
2022/04/14 01:45:12;;;;;;;;;;;7.50;72.10;;;6.35;nan;96743.66;4262152;33;20445;-83
2022/04/14 01:47:41;;;;;;;;;;;7.50;72.20;;;6.34;nan;96742.84;4261811;33;19901;-83
2022/04/14 01:50:12;;;;;;;;;;;7.50;72.40;;;6.34;nan;96740.13;4286339;33;20101;-83
2022/04/14 01:52:41;;;;;;;;;;;7.50;72.30;;;6.34;nan;96737.41;4262320;33;20154;-83
2022/04/14 01:55:10;;;;;;;;;;;7.40;72.10;;;6.32;nan;96739.50;4253936;33;19916;-84
2022/04/14 01:57:39;;;;;;;;;;;7.40;72.20;;;6.32;nan;96742.22;4266283;33;20065;-83
2022/04/14 02:00:13;;;;;;;;;;;7.40;72.40;;;6.32;nan;96744.13;4261939;33;19916;-84
2022/04/14 02:02:41;;;;;;;;;;;7.40;72.00;;;6.32;nan;96747.66;4262932;33;20126;-83
2022/04/14 02:05:10;;;;;;;;;;;7.40;72.30;;;6.31;nan;96743.28;4238198;33;20075;-84
2022/04/14 02:07:39;;;;;;;;;;;7.40;72.30;;;6.31;nan;96743.28;4261392;33;19982;-84
2022/04/14 02:10:08;;;;;;;;;;;7.40;72.20;;;6.31;nan;96742.47;4237972;33;20029;-83
2022/04/14 02:12:37;;;;;;;;;;;7.40;72.40;;;6.29;nan;96738.09;4237550;33;19909;-83
2022/04/14 02:15:08;;;;;;;;;;;7.40;72.20;;;6.29;nan;96737.25;4261670;33;19901;-83
2022/04/14 02:17:37;;;;;;;;;;;7.40;72.30;;;6.29;nan;96735.38;4261105;33;19902;-83
2022/04/14 02:20:07;;;;;;;;;;;7.40;72.20;;;6.29;nan;96739.97;4261554;33;19909;-83
2022/04/14 02:22:40;;;;;;;;;;;7.40;72.40;;;6.29;nan;96740.81;4237884;33;20298;-83
2022/04/14 02:25:10;;;;;;;;;;;7.40;72.40;;;6.27;nan;96740.19;4265830;33;20205;-84
2022/04/14 02:27:39;;;;;;;;;;;7.40;72.30;;;6.28;nan;96743.75;4266549;33;19949;-84
2022/04/14 02:30:10;;;;;;;;;;;7.40;72.10;;;6.28;nan;96735.59;4290810;33;20340;-83
2022/04/14 02:32:39;;;;;;;;;;;7.40;72.20;;;6.26;nan;96730.38;4290851;33;20092;-83
2022/04/14 02:35:08;;;;;;;;;;;7.40;72.50;;;6.25;nan;96728.72;4266684;33;20135;-83
2022/04/14 02:37:37;;;;;;;;;;;7.40;72.50;;;6.26;nan;96735.81;4290239;33;19902;-84
2022/04/14 02:40:07;;;;;;;;;;;7.40;72.50;;;6.25;nan;96738.78;4266568;33;20129;-83
2022/04/14 02:42:36;;;;;;;;;;;7.40;72.50;;;6.24;nan;96740.66;4265543;33;19971;-83
2022/04/14 02:45:06;;;;;;;;;;;7.40;72.60;;;6.25;nan;96733.34;4265922;33;20027;-84
2022/04/14 02:47:36;;;;;;;;;;;7.40;72.70;;;6.25;nan;96738.78;4261334;33;19902;-84
2022/04/14 02:50:05;;;;;;;;;;;7.40;72.50;;;6.23;nan;96740.91;4237949;33;19902;-83
2022/04/14 02:52:34;;;;;;;;;;;7.30;72.50;;;6.24;nan;96745.28;4237982;33;20251;-84
2022/04/14 02:55:03;;;;;;;;;;;7.40;72.50;;;6.22;nan;96740.06;4261766;33;20217;-84
2022/04/14 02:57:31;;;;;;;;;;;7.30;72.40;;;6.23;nan;96746.34;4290064;33;20012;-83
2022/04/14 03:00:00;;;;;;;;;;;7.30;72.40;;;6.22;nan;96750.09;4314990;32;19901;-83
2022/04/14 03:02:28;;;;;;;;;;;7.30;72.40;;;6.22;nan;96750.09;4290509;33;19902;-84
2022/04/14 03:04:58;;;;;;;;;;;7.30;72.70;;;6.21;nan;96753.88;4266384;33;20225;-84
2022/04/14 03:07:28;;;;;;;;;;;7.30;72.40;;;6.21;nan;96751.16;4242366;33;19901;-84
2022/04/14 03:09:57;;;;;;;;;;;7.30;72.40;;;6.21;nan;96751.16;4261742;33;20375;-83
2022/04/14 03:12:25;;;;;;;;;;;7.30;72.50;;;6.21;nan;96756.59;4237517;33;20050;-84
2022/04/14 03:14:54;;;;;;;;;;;7.30;72.70;;;6.19;nan;96756.84;4261527;33;19902;-83
2022/04/14 03:17:22;;;;;;;;;;;7.30;72.40;;;6.20;nan;96763.09;4237301;33;20053;-83
2022/04/14 03:19:51;;;;;;;;;;;7.30;72.70;;;6.20;nan;96763.09;4239994;33;19902;-84
2022/04/14 03:22:21;;;;;;;;;;;7.30;72.50;;;6.19;nan;96758.72;4263937;33;20080;-83
2022/04/14 03:24:49;;;;;;;;;;;7.30;72.50;;;6.17;nan;96753.53;4239191;33;20061;-83
2022/04/14 03:27:18;;;;;;;;;;;7.30;72.50;;;6.17;nan;96758.97;4264615;33;20029;-84
2022/04/14 03:29:46;;;;;;;;;;;7.30;72.50;;;6.16;nan;96753.72;4263886;33;19903;-83
2022/04/14 03:32:15;;;;;;;;;;;7.30;72.40;;;6.17;nan;96769.00;4239977;33;19909;-83
2022/04/14 03:34:44;;;;;;;;;;;7.30;72.70;;;6.17;nan;96769.84;4263778;33;20102;-84
2022/04/14 03:37:12;;;;;;;;;;;7.30;72.50;;;6.17;nan;96766.25;4263387;33;20064;-84
2022/04/14 03:39:53;;;;;;;;;;;7.30;72.70;;;6.17;nan;96779.84;4240021;33;20045;-83
2022/04/14 03:42:24;;;;;;;;;;;7.30;72.70;;;6.14;nan;96765.66;4263572;33;20333;-83
2022/04/14 03:44:53;;;;;;;;;;;7.30;72.70;;;6.14;nan;96773.81;4263681;33;19908;-84
2022/04/14 03:47:21;;;;;;;;;;;7.30;72.60;;;6.14;nan;96779.25;4239309;33;19934;-84
2022/04/14 03:49:50;;;;;;;;;;;7.30;72.50;;;6.16;nan;96779.03;4263394;33;20457;-84
2022/04/14 03:52:19;;;;;;;;;;;7.30;72.60;;;6.16;nan;96778.19;4276549;33;19956;-84
2022/04/14 03:54:49;;;;;;;;;;;7.30;72.40;;;6.17;nan;96785.28;4292605;33;20114;-83
2022/04/14 03:57:17;;;;;;;;;;;7.30;72.40;;;6.17;nan;96794.28;4292256;33;20128;-83
2022/04/14 03:59:46;;;;;;;;;;;7.30;72.50;;;6.17;nan;96785.28;4292550;33;19941;-83
2022/04/14 04:02:14;;;;;;;;;;;7.30;72.40;;;6.19;nan;96785.91;4292309;33;19902;-83
2022/04/14 04:04:43;;;;;;;;;;;7.30;72.50;;;6.18;nan;96778.81;4292364;33;20029;-83
2022/04/14 04:07:12;;;;;;;;;;;7.30;72.20;;;6.20;nan;96790.28;4267813;33;19994;-83
2022/04/14 04:09:40;;;;;;;;;;;7.30;72.10;;;6.21;nan;96791.94;4268326;33;19901;-83
2022/04/14 04:12:11;;;;;;;;;;;7.30;72.00;;;6.22;nan;96804.47;4267978;33;20219;-83
2022/04/14 04:14:41;;;;;;;;;;;7.30;72.00;;;6.23;nan;96801.53;4268176;33;20124;-83
2022/04/14 04:17:09;;;;;;;;;;;7.40;71.60;;;6.25;nan;96806.75;4291603;33;19901;-82
2022/04/14 04:19:39;;;;;;;;;;;7.40;71.40;;;6.26;nan;96794.81;4292456;33;19902;-83
2022/04/14 04:22:07;;;;;;;;;;;7.40;71.40;;;6.27;nan;96791.03;4316782;32;20125;-83
2022/04/14 04:24:36;;;;;;;;;;;7.40;71.10;;;6.30;nan;96787.84;4268063;33;19909;-83
2022/04/14 04:27:05;;;;;;;;;;;7.40;71.10;;;6.32;nan;96798.53;4291004;33;20108;-83
2022/04/14 04:29:35;;;;;;;;;;;7.40;70.90;;;6.32;nan;96790.34;4291505;33;20367;-84
2022/04/14 04:32:04;;;;;;;;;;;7.50;70.70;;;6.34;nan;96802.66;4291629;33;19902;-83
2022/04/14 04:34:33;;;;;;;;;;;7.50;70.60;;;6.36;nan;96802.41;4292203;33;19903;-83
2022/04/14 04:37:01;;;;;;;;;;;7.50;70.40;;;6.38;nan;96801.16;4267340;33;20358;-82
2022/04/14 04:39:30;;;;;;;;;;;7.50;70.20;;;6.39;nan;96799.25;4292090;33;19902;-83
2022/04/14 04:41:59;;;;;;;;;;;7.50;70.10;;;6.43;nan;96809.44;4291903;33;20056;-83
2022/04/14 04:44:27;;;;;;;;;;;7.60;70.10;;;6.44;nan;96808.38;4292993;33;20124;-83
2022/04/14 04:46:57;;;;;;;;;;;7.60;69.80;;;6.45;nan;96804.59;4315797;32;20381;-83
2022/04/14 04:49:26;;;;;;;;;;;7.60;69.60;;;6.49;nan;96806.88;4267573;33;19902;-83
2022/04/14 04:51:54;;;;;;;;;;;7.60;69.40;;;6.49;nan;96802.25;4292757;33;19909;-83
2022/04/14 04:54:23;;;;;;;;;;;7.70;69.40;;;6.55;nan;96803.22;4291938;33;20118;-83
2022/04/14 04:56:52;;;;;;;;;;;7.70;69.40;;;6.58;nan;96797.31;4291444;33;19902;-82
2022/04/14 04:59:20;;;;;;;;;;;7.70;69.30;;;6.60;nan;96795.22;4291914;33;19981;-83
2022/04/14 05:01:49;;;;;;;;;;;7.80;69.40;;;6.66;nan;96794.28;4267474;33;19908;-84
2022/04/14 05:04:19;;;;;;;;;;;7.80;69.10;;;6.72;nan;96792.50;4291739;33;19901;-84
2022/04/14 05:06:47;;;;;;;;;;;7.90;69.20;;;6.84;nan;96798.00;4315781;32;20327;-83
2022/04/14 05:09:16;;;;;;;;;;;8.00;69.20;;;6.96;nan;96798.88;4292067;33;20125;-83
2022/04/14 05:11:44;;;;;;;;;;;8.20;69.20;;;7.11;nan;96805.78;4317357;32;20000;-82
2022/04/14 05:14:13;;;;;;;;;;;8.30;69.90;;;7.22;nan;96796.78;4268935;33;19902;-83
2022/04/14 05:16:42;;;;;;;;;;;8.50;69.90;;;7.40;nan;96800.50;4268727;33;19955;-84
2022/04/14 05:19:10;;;;;;;;;;;8.70;69.50;;;7.63;nan;96795.06;4294818;33;19902;-83
2022/04/14 05:21:40;;;;;;;;;;;9.00;68.50;;;7.83;nan;96796.56;4295629;32;19902;-83
2022/04/14 05:24:09;;;;;;;;;;;9.20;67.50;;;7.97;nan;96792.53;4270547;33;20124;-83
2022/04/14 05:26:37;;;;;;;;;;;9.30;66.70;;;8.04;nan;96789.69;4294285;33;20368;-83
2022/04/14 05:29:07;;;;;;;;;;;9.30;66.20;;;8.05;nan;96787.78;4295288;33;20155;-83
2022/04/14 05:31:36;;;;;;;;;;;9.30;66.00;;;8.02;nan;96791.81;4297110;33;20022;-84
2022/04/14 05:34:05;;;;;;;;;;;9.30;66.20;;;7.96;nan;96790.88;4271912;33;19916;-83
2022/04/14 05:36:33;;;;;;;;;;;9.20;66.30;;;7.95;nan;96793.84;4272320;33;19945;-83
2022/04/14 05:39:03;;;;;;;;;;;9.20;66.70;;;7.91;nan;96793.50;4275127;33;19906;-83
2022/04/14 05:41:32;;;;;;;;;;;9.10;66.80;;;7.88;nan;96793.13;4293517;33;20138;-83
2022/04/14 05:44:00;;;;;;;;;;;9.10;67.20;;;7.86;nan;96796.09;4267251;33;20116;-82
2022/04/14 05:46:29;;;;;;;;;;;9.10;67.40;;;7.84;nan;96790.06;4290469;33;19909;-83
2022/04/14 05:48:57;;;;;;;;;;;9.00;67.40;;;7.83;nan;96796.56;4266746;33;20153;-82
2022/04/14 05:51:26;;;;;;;;;;;9.00;67.60;;;7.80;nan;96792.44;4290714;33;20114;-83
2022/04/14 05:53:54;;;;;;;;;;;9.00;67.70;;;7.83;nan;96796.56;4290768;33;20127;-83
2022/04/14 05:56:24;;;;;;;;;;;9.00;67.80;;;7.83;nan;96799.31;4266118;33;19902;-83
2022/04/14 05:58:54;;;;;;;;;;;9.00;67.90;;;7.82;nan;96795.75;4266705;33;20249;-82
2022/04/14 06:01:25;;;;;;;;;;;9.00;67.90;;;7.86;nan;96801.56;4266366;33;19946;-83
2022/04/14 06:03:53;;;;;;;;;;;9.00;68.00;;;7.86;nan;96790.66;4266376;33;20299;-83
2022/04/14 06:06:22;;;;;;;;;;;9.00;67.90;;;7.87;nan;96803.22;4290010;33;19982;-82
2022/04/14 06:08:50;;;;;;;;;;;9.00;68.00;;;7.88;nan;96798.56;4266681;33;20018;-82
2022/04/14 06:11:19;;;;;;;;;;;9.00;68.00;;;7.89;nan;96814.72;4290486;33;20239;-83
2022/04/14 06:13:49;;;;;;;;;;;9.00;68.00;;;7.90;nan;96808.19;4279055;27;19909;-86
2022/04/14 06:16:18;;;;;;;;;;;9.00;68.00;;;7.88;nan;96799.44;4209147;33;20246;-86
2022/04/14 06:18:52;;;;;;;;;;;9.10;68.20;;;7.92;nan;96805.22;4233091;33;20170;-86
2022/04/14 06:21:21;;;;;;;;;;;9.00;68.10;;;7.90;nan;96805.47;4185982;33;19902;-87
2022/04/14 06:23:50;;;;;;;;;;;9.00;68.10;;;7.91;nan;96793.50;4204831;33;19902;-86
2022/04/14 06:26:19;;;;;;;;;;;9.00;68.20;;;7.91;nan;96804.41;4181199;33;19902;-87
2022/04/14 06:28:54;;;;;;;;;;;9.00;68.10;;;7.93;nan;96802.28;4159857;33;19903;-86
2022/04/14 06:31:23;;;;;;;;;;;9.00;68.20;;;7.92;nan;96795.16;4153842;34;19965;-87
2022/04/14 06:33:52;;;;;;;;;;;9.10;68.40;;;7.92;nan;96799.78;4180649;33;19948;-87
2022/04/14 06:36:25;;;;;;;;;;;9.00;68.30;;;7.94;nan;96803.91;4181411;33;20052;-87
2022/04/14 06:38:53;;;;;;;;;;;9.00;68.30;;;7.95;nan;96800.13;4204869;33;19909;-87
2022/04/14 06:41:22;;;;;;;;;;;9.00;68.50;;;7.95;nan;96804.75;4158522;33;20232;-87
2022/04/14 06:43:51;;;;;;;;;;;9.00;68.40;;;7.96;nan;96807.22;4158694;33;19905;-86
2022/04/14 06:46:21;;;;;;;;;;;9.10;68.50;;;7.97;nan;96808.88;4207059;33;19909;-87
2022/04/14 06:48:49;;;;;;;;;;;9.10;68.50;;;8.01;nan;96808.41;4209159;33;19902;-86
2022/04/14 06:51:18;;;;;;;;;;;9.10;68.50;;;7.98;nan;96799.66;4177792;33;20114;-86
2022/04/14 06:53:48;;;;;;;;;;;9.10;68.40;;;8.01;nan;96808.41;4205641;33;19962;-86
2022/04/14 06:56:16;;;;;;;;;;;9.10;68.40;;;8.02;nan;96804.63;4160881;33;20254;-87
2022/04/14 06:58:57;;;;;;;;;;;9.10;68.50;;;8.02;nan;96800.00;4184362;33;19902;-85
2022/04/14 07:01:27;;;;;;;;;;;9.10;68.50;;;8.01;nan;96798.31;4184146;33;20166;-87
2022/04/14 07:07:16;;;;;;;;;;;9.10;68.50;;;8.04;nan;96800.59;4160658;33;19983;-85
2022/04/14 07:09:45;;;;;;;;;;;9.10;68.50;;;8.03;nan;96801.66;4161201;33;20141;-87
2022/04/14 07:12:13;;;;;;;;;;;9.10;68.50;;;8.05;nan;96801.44;4207022;33;19959;-86
2022/04/14 07:14:42;;;;;;;;;;;9.10;68.40;;;8.05;nan;96793.25;4184022;33;20022;-86
2022/04/14 07:17:12;;;;;;;;;;;9.10;68.40;;;8.03;nan;96798.91;4160613;33;20059;-86
2022/04/14 07:19:52;;;;;;;;;;;9.10;68.50;;;8.03;nan;96801.66;4184162;33;19910;-86
2022/04/14 07:22:21;;;;;;;;;;;9.10;68.60;;;8.02;nan;96805.44;4184040;33;19903;-87
2022/04/14 07:24:49;;;;;;;;;;;9.10;68.70;;;8.04;nan;96803.31;4184024;33;19903;-86
2022/04/14 07:27:32;;;;;;;;;;;9.10;68.70;;;8.04;nan;96803.31;4160746;33;19951;-87
2022/04/14 07:30:10;;;;;;;;;;;9.10;68.70;;;8.06;nan;96808.53;4161752;33;19903;-87
2022/04/14 07:33:20;;;;;;;;;;;9.10;68.70;;;8.04;nan;96800.59;4163114;33;20237;-87
2022/04/14 07:35:53;;;;;;;;;;;9.10;68.80;;;8.05;nan;96804.97;4161500;33;20459;-87
2022/04/14 07:38:36;;;;;;;;;;;9.10;68.70;;;8.07;nan;96802.00;4197782;33;19910;-86
2022/04/14 07:41:14;;;;;;;;;;;9.10;68.70;;;8.09;nan;96806.16;4184195;33;19903;-87
2022/04/14 07:43:43;;;;;;;;;;;9.10;68.70;;;8.12;nan;96810.28;4206632;33;19910;-87
2022/04/14 07:46:12;;;;;;;;;;;9.10;68.80;;;8.13;nan;96801.06;4206153;33;19903;-87
2022/04/14 07:48:42;;;;;;;;;;;9.20;68.80;;;8.16;nan;96802.47;4207600;33;19903;-87
2022/04/14 07:51:11;;;;;;;;;;;9.10;68.80;;;8.17;nan;96802.22;4159952;33;19903;-86
2022/04/14 07:53:47;;;;;;;;;;;9.10;68.80;;;8.18;nan;96803.91;4160444;33;20134;-86
2022/04/14 07:56:19;;;;;;;;;;;9.20;68.70;;;8.20;nan;96799.00;4183213;33;19911;-87
2022/04/14 07:58:57;;;;;;;;;;;9.20;68.60;;;8.19;nan;96805.56;4183528;33;20316;-87
2022/04/14 08:01:26;;;;;;;;;;;9.20;68.50;;;8.19;nan;96800.09;4160374;33;19909;-87
2022/04/14 08:04:13;;;;;;;;;;;9.20;68.50;;;8.19;nan;96807.44;4160311;33;20085;-87
2022/04/14 08:06:42;;;;;;;;;;;9.20;68.50;;;8.18;nan;96803.91;4188220;33;19909;-86
2022/04/14 08:09:14;;;;;;;;;;;9.20;68.50;;;8.16;nan;96795.13;4188686;33;19910;-87
2022/04/14 08:11:46;;;;;;;;;;;9.20;68.60;;;8.16;nan;96797.84;4161264;33;19910;-86
2022/04/14 08:14:14;;;;;;;;;;;9.20;68.60;;;8.18;nan;96801.16;4160314;33;19910;-87
2022/04/14 08:16:43;;;;;;;;;;;9.20;68.60;;;8.17;nan;96796.78;4159799;33;19902;-87
2022/04/14 08:19:13;;;;;;;;;;;9.20;68.60;;;8.16;nan;96791.53;4160367;33;20027;-87
2022/04/14 08:21:42;;;;;;;;;;;9.20;68.70;;;8.16;nan;96795.13;4182956;33;20088;-87
2022/04/14 08:24:10;;;;;;;;;;;9.20;68.70;;;8.15;nan;96798.91;4183102;33;19903;-87
2022/04/14 08:27:04;;;;;;;;;;;9.20;68.70;;;8.13;nan;96796.41;4170166;33;19903;-87
2022/04/14 08:29:35;;;;;;;;;;;9.20;68.80;;;8.13;nan;96795.59;4187707;33;19902;-87
2022/04/14 08:32:12;;;;;;;;;;;9.20;68.80;;;8.09;nan;96788.94;4234581;33;19948;-87
2022/04/14 08:34:44;;;;;;;;;;;9.20;68.90;;;8.10;nan;96796.06;4187811;33;19974;-87
2022/04/14 08:37:24;;;;;;;;;;;9.20;68.90;;;8.06;nan;96790.28;4187290;33;20038;-87
2022/04/14 08:40:16;;;;;;;;;;;9.10;68.80;;;8.07;nan;96788.34;4210988;33;20022;-88
2022/04/14 08:42:54;;;;;;;;;;;9.10;69.00;;;8.04;nan;96786.13;4155122;34;20149;-88
2022/04/14 08:49:14;;;;;;;;;;;9.10;69.20;;;8.02;nan;96788.28;4153129;34;20055;-87
2022/04/14 08:51:44;;;;;;;;;;;9.10;69.30;;;8.01;nan;96778.44;4155676;34;19923;-86
2022/04/14 08:54:14;;;;;;;;;;;9.10;69.20;;;7.98;nan;96786.00;4132731;34;19955;-87
2022/04/14 08:56:44;;;;;;;;;;;9.00;69.10;;;7.96;nan;96779.97;4132290;34;20033;-87
2022/04/14 08:59:12;;;;;;;;;;;9.00;69.20;;;7.93;nan;96775.03;4155154;34;20218;-87
2022/04/14 09:01:42;;;;;;;;;;;9.10;69.40;;;7.93;nan;96772.28;4163219;33;20399;-87
2022/04/14 09:04:11;;;;;;;;;;;9.00;69.30;;;7.94;nan;96782.09;4210603;33;19902;-87
2022/04/14 09:06:40;;;;;;;;;;;9.00;69.30;;;7.93;nan;96779.63;4210695;33;20092;-87
2022/04/14 09:09:10;;;;;;;;;;;9.00;69.30;;;7.92;nan;96788.88;4187665;33;20102;-86
2022/04/14 09:11:39;;;;;;;;;;;9.00;69.40;;;7.90;nan;96782.81;4212063;33;19909;-87
2022/04/14 09:14:09;;;;;;;;;;;9.00;69.50;;;7.88;nan;96777.63;4235627;33;19906;-87
2022/04/14 09:16:37;;;;;;;;;;;9.00;69.40;;;7.88;nan;96788.53;4186696;33;19902;-87
2022/04/14 09:19:06;;;;;;;;;;;9.00;69.40;;;7.88;nan;96783.06;4187683;33;19910;-87
2022/04/14 09:21:35;;;;;;;;;;;9.00;69.50;;;7.87;nan;96791.50;4210615;33;19952;-87
2022/04/14 09:24:04;;;;;;;;;;;9.00;69.50;;;7.82;nan;96784.84;4210630;33;20021;-87
2022/04/14 09:26:34;;;;;;;;;;;9.00;69.60;;;7.83;nan;96788.41;4186893;33;19902;-87
2022/04/14 09:29:06;;;;;;;;;;;9.00;69.60;;;7.81;nan;96791.38;4187336;33;19908;-86
2022/04/14 09:31:48;;;;;;;;;;;8.90;69.70;;;7.81;nan;96777.75;4234997;33;20061;-87
2022/04/14 09:34:18;;;;;;;;;;;8.90;69.80;;;7.79;nan;96773.59;4234802;33;20143;-88
2022/04/14 09:37:08;;;;;;;;;;;8.90;69.80;;;7.79;nan;96770.88;4210079;33;20278;-88
2022/04/14 09:39:54;;;;;;;;;;;8.90;69.80;;;7.76;nan;96764.00;4210268;33;19902;-87
2022/04/14 09:42:25;;;;;;;;;;;8.90;69.90;;;7.76;nan;96757.72;4187167;33;19902;-87
2022/04/14 09:44:54;;;;;;;;;;;8.90;70.00;;;7.75;nan;96761.50;4233754;33;19902;-86
2022/04/14 09:47:38;;;;;;;;;;;8.90;69.90;;;7.73;nan;96759.03;4210006;33;19943;-88
2022/04/14 09:50:24;;;;;;;;;;;8.80;69.90;;;7.72;nan;96762.84;4210110;33;19902;-87
2022/04/14 09:53:01;;;;;;;;;;;8.80;70.00;;;7.73;nan;96758.19;4186936;33;19997;-86
2022/04/14 09:55:30;;;;;;;;;;;8.80;70.00;;;7.70;nan;96753.22;4234584;33;20034;-88
2022/04/14 09:58:14;;;;;;;;;;;8.90;70.20;;;7.70;nan;96753.22;4186983;33;19910;-87
2022/04/14 10:00:45;;;;;;;;;;;8.80;70.30;;;7.67;nan;96744.47;4210373;33;19929;-88
2022/04/14 10:03:17;;;;;;;;;;;8.80;70.30;;;7.66;nan;96739.25;4187044;33;19952;-88
2022/04/14 10:05:46;;;;;;;;;;;8.80;70.40;;;7.66;nan;96737.38;4233704;33;19917;-87
2022/04/14 10:08:14;;;;;;;;;;;8.80;70.30;;;7.66;nan;96737.38;4210025;33;19909;-88
2022/04/14 10:10:44;;;;;;;;;;;8.80;70.50;;;7.63;nan;96743.28;4186795;33;19910;-87
2022/04/14 10:13:15;;;;;;;;;;;8.80;70.40;;;7.64;nan;96738.66;4186719;33;19902;-87
2022/04/14 10:15:45;;;;;;;;;;;8.80;70.40;;;7.62;nan;96733.44;4187115;33;19910;-87
2022/04/14 10:18:15;;;;;;;;;;;8.80;70.60;;;7.62;nan;96729.88;4186591;33;19903;-87
2022/04/14 10:20:45;;;;;;;;;;;8.80;70.60;;;7.61;nan;96730.97;4210093;33;19902;-86
2022/04/14 10:23:15;;;;;;;;;;;8.80;70.60;;;7.61;nan;96731.78;4185942;33;19909;-86
2022/04/14 10:25:44;;;;;;;;;;;8.80;70.70;;;7.61;nan;96734.50;4209928;33;20109;-87
2022/04/14 10:28:16;;;;;;;;;;;8.70;70.80;;;7.61;nan;96731.78;4209395;33;20066;-87
2022/04/14 10:30:49;;;;;;;;;;;8.80;70.80;;;7.59;nan;96730.38;4209739;33;19943;-88
2022/04/14 10:33:18;;;;;;;;;;;8.70;70.80;;;7.60;nan;96721.94;4186466;33;20045;-87
2022/04/14 10:35:47;;;;;;;;;;;8.70;70.90;;;7.59;nan;96724.94;4210086;33;20222;-87
2022/04/14 10:38:18;;;;;;;;;;;8.70;70.80;;;7.58;nan;96715.09;4209489;33;19909;-87
2022/04/14 10:40:48;;;;;;;;;;;8.70;70.90;;;7.57;nan;96713.44;4209931;33;19909;-87
2022/04/14 10:43:20;;;;;;;;;;;8.70;71.00;;;7.56;nan;96715.31;4186674;33;19902;-87
2022/04/14 10:45:50;;;;;;;;;;;8.70;71.10;;;7.56;nan;96709.06;4209915;33;20050;-87
2022/04/14 10:48:29;;;;;;;;;;;8.70;71.10;;;7.56;nan;96720.75;4209729;33;20136;-88
2022/04/14 10:51:24;;;;;;;;;;;8.70;71.10;;;7.56;nan;96715.31;4186426;33;19902;-87
2022/04/14 10:53:57;;;;;;;;;;;8.70;71.10;;;7.56;nan;96709.88;4205571;33;20140;-87
2022/04/14 10:56:49;;;;;;;;;;;8.70;71.20;;;7.55;nan;96710.97;4186013;33;20144;-88
2022/04/14 10:59:21;;;;;;;;;;;8.70;71.20;;;7.54;nan;96706.56;4205141;33;20030;-88
2022/04/14 11:01:58;;;;;;;;;;;8.70;71.20;;;7.55;nan;96707.38;4204935;33;19910;-87
2022/04/14 11:04:29;;;;;;;;;;;8.70;71.30;;;7.54;nan;96706.56;4205103;33;19903;-86
2022/04/14 11:06:59;;;;;;;;;;;8.70;71.40;;;7.52;nan;96698.63;4204627;33;19910;-87
2022/04/14 11:09:51;;;;;;;;;;;8.70;71.30;;;7.55;nan;96701.94;4203864;33;20016;-88
2022/04/14 11:12:21;;;;;;;;;;;8.70;71.40;;;7.54;nan;96709.31;4181580;33;20162;-88
2022/04/14 11:14:56;;;;;;;;;;;8.70;71.40;;;7.54;nan;96701.13;4204599;33;19909;-87
2022/04/14 11:17:52;;;;;;;;;;;8.70;71.40;;;7.54;nan;96698.41;4204972;33;19910;-88
2022/04/14 11:20:25;;;;;;;;;;;8.70;71.40;;;7.54;nan;96690.22;4181999;33;20175;-88
2022/04/14 11:23:04;;;;;;;;;;;8.70;71.30;;;7.55;nan;96705.50;4181812;33;19910;-87
2022/04/14 11:25:48;;;;;;;;;;;8.70;71.40;;;7.54;nan;96706.56;4181585;33;19903;-87
2022/04/14 11:28:25;;;;;;;;;;;8.70;71.40;;;7.54;nan;96703.84;4180227;33;20134;-86
2022/04/14 11:30:56;;;;;;;;;;;8.70;71.40;;;7.53;nan;96704.91;4205110;33;19903;-88
2022/04/14 11:33:34;;;;;;;;;;;8.70;71.50;;;7.55;nan;96699.22;4181877;33;19902;-87
2022/04/14 11:36:11;;;;;;;;;;;8.60;71.40;;;7.52;nan;96695.09;4204576;33;19910;-87
2022/04/14 11:39:00;;;;;;;;;;;8.70;71.60;;;7.52;nan;96697.81;4181742;33;19903;-87
2022/04/14 11:41:40;;;;;;;;;;;8.70;71.60;;;7.53;nan;96699.47;4184478;33;20091;-87
2022/04/14 11:44:11;;;;;;;;;;;8.60;71.50;;;7.53;nan;96694.03;4161303;33;19910;-88
2022/04/14 11:46:43;;;;;;;;;;;8.70;71.60;;;7.53;nan;96694.84;4206379;33;19902;-88
2022/04/14 11:49:14;;;;;;;;;;;8.70;71.60;;;7.51;nan;96696.97;4184821;33;20024;-88
2022/04/14 11:51:44;;;;;;;;;;;8.70;71.60;;;7.53;nan;96702.19;4188414;33;20367;-88
2022/04/14 11:54:13;;;;;;;;;;;8.70;71.60;;;7.52;nan;96687.72;4211713;33;19934;-87
2022/04/14 11:56:41;;;;;;;;;;;8.70;71.60;;;7.52;nan;96692.34;4187917;33;19952;-88
2022/04/14 11:59:10;;;;;;;;;;;8.70;71.70;;;7.54;nan;96690.22;4211721;33;20102;-87
2022/04/14 12:01:50;;;;;;;;;;;8.70;71.60;;;7.55;nan;96683.72;4211474;33;20047;-87
2022/04/14 12:04:19;;;;;;;;;;;8.70;71.70;;;7.54;nan;96687.50;4211727;33;19909;-88
2022/04/14 12:06:57;;;;;;;;;;;8.70;71.70;;;7.52;nan;96685.00;4211021;33;20336;-87
2022/04/14 12:09:26;;;;;;;;;;;8.70;71.70;;;7.55;nan;96685.59;4211668;33;20149;-88
2022/04/14 12:11:55;;;;;;;;;;;8.70;71.70;;;7.53;nan;96685.84;4230108;33;19903;-87
2022/04/14 12:14:24;;;;;;;;;;;8.70;71.70;;;7.54;nan;96684.78;4183656;33;19926;-87
2022/04/14 12:21:34;;;;;;;;;;;8.70;71.70;;;7.56;nan;96684.53;4148420;34;19907;-88